sensor_id;sensor_type;location;lat;lon;timestamp;pressure;altitude;pressure_sealevel;temperature;humidity
66857;BME280;53766;50.280;19.160;2023-08-07T00:02:18;97241.09;;;20.14;63.59
66857;BME280;53766;50.280;19.160;2023-08-07T00:04:46;97251.81;;;20.14;63.60
66857;BME280;53766;50.280;19.160;2023-08-07T00:07:14;97249.13;;;20.14;63.71
66857;BME280;53766;50.280;19.160;2023-08-07T00:09:41;97243.78;;;20.14;63.71
66857;BME280;53766;50.280;19.160;2023-08-07T00:12:09;97236.56;;;20.15;63.82
66857;BME280;53766;50.280;19.160;2023-08-07T00:14:36;97232.03;;;20.16;63.63
66857;BME280;53766;50.280;19.160;2023-08-07T00:17:04;97234.94;;;20.14;63.62
66857;BME280;53766;50.280;19.160;2023-08-07T00:19:33;97233.09;;;20.14;63.74
66857;BME280;53766;50.280;19.160;2023-08-07T00:22:01;97235.75;;;20.14;63.48
66857;BME280;53766;50.280;19.160;2023-08-07T00:24:28;97235.75;;;20.14;63.63
66857;BME280;53766;50.280;19.160;2023-08-07T00:26:56;97240.28;;;20.14;63.63
66857;BME280;53766;50.280;19.160;2023-08-07T00:29:24;97236.81;;;20.13;63.54
66857;BME280;53766;50.280;19.160;2023-08-07T00:31:51;97240.28;;;20.14;63.72
66857;BME280;53766;50.280;19.160;2023-08-07T00:34:19;97241.09;;;20.14;63.53
66857;BME280;53766;50.280;19.160;2023-08-07T00:36:46;97233.09;;;20.14;63.56
66857;BME280;53766;50.280;19.160;2023-08-07T00:39:14;97248.28;;;20.14;63.48
66857;BME280;53766;50.280;19.160;2023-08-07T00:41:41;97240.28;;;20.14;63.47
66857;BME280;53766;50.280;19.160;2023-08-07T00:44:09;97257.16;;;20.14;63.57
66857;BME280;53766;50.280;19.160;2023-08-07T00:46:36;97234.94;;;20.14;63.42
66857;BME280;53766;50.280;19.160;2023-08-07T00:49:07;97234.13;;;20.13;63.41
66857;BME280;53766;50.280;19.160;2023-08-07T00:51:36;97239.47;;;20.13;63.64
66857;BME280;53766;50.280;19.160;2023-08-07T00:54:05;97237.88;;;20.12;63.43
66857;BME280;53766;50.280;19.160;2023-08-07T00:56:33;97228.78;;;20.13;63.50
66857;BME280;53766;50.280;19.160;2023-08-07T00:59:01;97228.78;;;20.13;63.37
66857;BME280;53766;50.280;19.160;2023-08-07T01:01:29;97220.75;;;20.13;63.53
66857;BME280;53766;50.280;19.160;2023-08-07T01:03:56;97215.41;;;20.13;63.40
66857;BME280;53766;50.280;19.160;2023-08-07T01:06:24;97211.13;;;20.12;63.51
66857;BME280;53766;50.280;19.160;2023-08-07T01:08:51;97209.25;;;20.13;63.29
66857;BME280;53766;50.280;19.160;2023-08-07T01:11:36;97209.50;;;20.11;63.48
66857;BME280;53766;50.280;19.160;2023-08-07T01:14:13;97204.72;;;20.13;63.41
66857;BME280;53766;50.280;19.160;2023-08-07T01:17:08;97206.59;;;20.13;63.48
66857;BME280;53766;50.280;19.160;2023-08-07T01:19:37;97211.13;;;20.12;63.46
66857;BME280;53766;50.280;19.160;2023-08-07T01:22:08;97221.56;;;20.14;63.40
66857;BME280;53766;50.280;19.160;2023-08-07T01:24:37;97215.41;;;20.13;63.32
66857;BME280;53766;50.280;19.160;2023-08-07T01:29:53;97212.75;;;20.13;63.33
66857;BME280;53766;50.280;19.160;2023-08-07T01:32:35;97218.09;;;20.13;63.33
66857;BME280;53766;50.280;19.160;2023-08-07T01:35:05;97227.97;;;20.13;63.40
66857;BME280;53766;50.280;19.160;2023-08-07T01:37:35;97229.84;;;20.12;63.23
66857;BME280;53766;50.280;19.160;2023-08-07T01:40:05;97227.19;;;20.12;63.27
66857;BME280;53766;50.280;19.160;2023-08-07T01:42:34;97228.78;;;20.13;63.47
66857;BME280;53766;50.280;19.160;2023-08-07T01:45:02;97227.19;;;20.12;63.26
66857;BME280;53766;50.280;19.160;2023-08-07T01:47:31;97227.19;;;20.12;63.33
66857;BME280;53766;50.280;19.160;2023-08-07T01:49:59;97221.81;;;20.12;63.22
66857;BME280;53766;50.280;19.160;2023-08-07T01:52:27;97221.81;;;20.12;63.39
66857;BME280;53766;50.280;19.160;2023-08-07T01:54:54;97217.28;;;20.13;63.21
66857;BME280;53766;50.280;19.160;2023-08-07T01:57:22;97227.19;;;20.12;63.40
66857;BME280;53766;50.280;19.160;2023-08-07T01:59:49;97221.81;;;20.12;63.15
66857;BME280;53766;50.280;19.160;2023-08-07T02:02:17;97215.66;;;20.12;63.17
66857;BME280;53766;50.280;19.160;2023-08-07T02:04:44;97221.81;;;20.12;63.17
66857;BME280;53766;50.280;19.160;2023-08-07T02:07:12;97216.47;;;20.12;63.38
66857;BME280;53766;50.280;19.160;2023-08-07T02:09:39;97210.31;;;20.12;63.23
66857;BME280;53766;50.280;19.160;2023-08-07T02:12:07;97214.63;;;20.13;63.27
66857;BME280;53766;50.280;19.160;2023-08-07T02:14:35;97216.47;;;20.12;63.42
66857;BME280;53766;50.280;19.160;2023-08-07T02:17:03;97223.44;;;20.13;63.38
66857;BME280;53766;50.280;19.160;2023-08-07T02:19:30;97221.81;;;20.12;63.38
66857;BME280;53766;50.280;19.160;2023-08-07T02:21:58;97221.81;;;20.12;63.27
66857;BME280;53766;50.280;19.160;2023-08-07T02:24:25;97221.00;;;20.12;63.39
66857;BME280;53766;50.280;19.160;2023-08-07T02:26:53;97223.66;;;20.12;63.17
66857;BME280;53766;50.280;19.160;2023-08-07T02:29:21;97221.81;;;20.12;63.35
66857;BME280;53766;50.280;19.160;2023-08-07T02:31:49;97225.53;;;20.11;63.26
66857;BME280;53766;50.280;19.160;2023-08-07T02:34:16;97225.53;;;20.11;63.36
66857;BME280;53766;50.280;19.160;2023-08-07T02:36:44;97223.94;;;20.10;63.37
66857;BME280;53766;50.280;19.160;2023-08-07T02:39:11;97226.34;;;20.12;63.36
66857;BME280;53766;50.280;19.160;2023-08-07T02:41:38;97234.63;;;20.10;63.16
66857;BME280;53766;50.280;19.160;2023-08-07T02:44:06;97229.28;;;20.10;63.28
66857;BME280;53766;50.280;19.160;2023-08-07T02:46:34;97234.63;;;20.10;63.30
66857;BME280;53766;50.280;19.160;2023-08-07T02:49:05;97238.91;;;20.11;63.11
66857;BME280;53766;50.280;19.160;2023-08-07T02:51:33;97235.44;;;20.11;63.26
66857;BME280;53766;50.280;19.160;2023-08-07T02:54:00;97239.16;;;20.10;63.17
66857;BME280;53766;50.280;19.160;2023-08-07T02:56:28;97246.13;;;20.11;63.11
66857;BME280;53766;50.280;19.160;2023-08-07T02:58:55;97239.97;;;20.10;63.13
66857;BME280;53766;50.280;19.160;2023-08-07T03:01:25;97235.44;;;20.11;63.08
66857;BME280;53766;50.280;19.160;2023-08-07T03:03:54;97242.66;;;20.10;63.21
66857;BME280;53766;50.280;19.160;2023-08-07T03:06:23;97235.44;;;20.11;63.40
66857;BME280;53766;50.280;19.160;2023-08-07T03:08:50;97237.31;;;20.10;63.07
66857;BME280;53766;50.280;19.160;2023-08-07T03:11:18;97229.28;;;20.10;63.25
66857;BME280;53766;50.280;19.160;2023-08-07T03:13:45;97227.66;;;20.09;63.20
66857;BME280;53766;50.280;19.160;2023-08-07T03:16:13;97227.66;;;20.09;63.15
66857;BME280;53766;50.280;19.160;2023-08-07T03:18:41;97232.19;;;20.09;63.07
66857;BME280;53766;50.280;19.160;2023-08-07T03:21:08;97233.00;;;20.09;63.27
66857;BME280;53766;50.280;19.160;2023-08-07T03:23:36;97226.84;;;20.09;63.06
66857;BME280;53766;50.280;19.160;2023-08-07T03:26:08;97242.06;;;20.08;62.91
66857;BME280;53766;50.280;19.160;2023-08-07T03:28:39;97232.44;;;20.07;63.15
66857;BME280;53766;50.280;19.160;2023-08-07T03:31:07;97242.88;;;20.09;63.04
66857;BME280;53766;50.280;19.160;2023-08-07T03:33:35;97254.38;;;20.09;63.00
66857;BME280;53766;50.280;19.160;2023-08-07T03:36:02;97247.41;;;20.08;63.19
66857;BME280;53766;50.280;19.160;2023-08-07T03:38:30;97238.34;;;20.09;63.10
66857;BME280;53766;50.280;19.160;2023-08-07T03:40:57;97244.75;;;20.08;62.98
66857;BME280;53766;50.280;19.160;2023-08-07T03:43:25;97244.75;;;20.08;63.05
66857;BME280;53766;50.280;19.160;2023-08-07T03:45:56;97251.97;;;20.08;63.03
66857;BME280;53766;50.280;19.160;2023-08-07T03:48:27;97252.78;;;20.08;63.00
66857;BME280;53766;50.280;19.160;2023-08-07T03:51:05;97258.13;;;20.08;62.91
66857;BME280;53766;50.280;19.160;2023-08-07T03:53:33;97258.91;;;20.09;63.05
66857;BME280;53766;50.280;19.160;2023-08-07T03:56:01;97263.47;;;20.08;63.06
66857;BME280;53766;50.280;19.160;2023-08-07T03:58:29;97268.81;;;20.08;63.03
66857;BME280;53766;50.280;19.160;2023-08-07T04:00:57;97263.47;;;20.08;62.96
66857;BME280;53766;50.280;19.160;2023-08-07T04:03:24;97260.78;;;20.08;63.01
66857;BME280;53766;50.280;19.160;2023-08-07T04:05:53;97263.47;;;20.08;63.06
66857;BME280;53766;50.280;19.160;2023-08-07T04:08:22;97266.94;;;20.09;63.02
66857;BME280;53766;50.280;19.160;2023-08-07T04:11:05;97268.81;;;20.08;62.82
66857;BME280;53766;50.280;19.160;2023-08-07T04:13:33;97272.50;;;20.07;63.00
66857;BME280;53766;50.280;19.160;2023-08-07T04:16:00;97270.69;;;20.08;62.97
66857;BME280;53766;50.280;19.160;2023-08-07T04:18:33;97274.16;;;20.08;63.08
66857;BME280;53766;50.280;19.160;2023-08-07T04:21:01;97266.94;;;20.09;63.02
66857;BME280;53766;50.280;19.160;2023-08-07T04:23:28;97273.09;;;20.09;62.84
66857;BME280;53766;50.280;19.160;2023-08-07T04:25:56;97276.81;;;20.08;62.91
66857;BME280;53766;50.280;19.160;2023-08-07T04:28:23;97269.59;;;20.09;62.89
66857;BME280;53766;50.280;19.160;2023-08-07T04:30:51;97271.47;;;20.08;62.86
66857;BME280;53766;50.280;19.160;2023-08-07T04:33:20;97275.75;;;20.09;62.84
66857;BME280;53766;50.280;19.160;2023-08-07T04:35:48;97281.09;;;20.09;62.87
66857;BME280;53766;50.280;19.160;2023-08-07T04:38:16;97279.50;;;20.08;62.80
66857;BME280;53766;50.280;19.160;2023-08-07T04:40:47;97275.75;;;20.09;62.92
66857;BME280;53766;50.280;19.160;2023-08-07T04:43:16;97275.75;;;20.09;62.75
66857;BME280;53766;50.280;19.160;2023-08-07T04:45:44;97275.75;;;20.09;62.78
66857;BME280;53766;50.280;19.160;2023-08-07T04:48:15;97277.41;;;20.10;62.74
66857;BME280;53766;50.280;19.160;2023-08-07T04:50:43;97278.44;;;20.09;62.91
66857;BME280;53766;50.280;19.160;2023-08-07T04:53:10;97284.34;;;20.11;62.84
66857;BME280;53766;50.280;19.160;2023-08-07T04:55:38;97283.53;;;20.11;62.97
66857;BME280;53766;50.280;19.160;2023-08-07T04:58:06;97281.66;;;20.11;62.85
66857;BME280;53766;50.280;19.160;2023-08-07T05:00:33;97279.81;;;20.12;62.81
66857;BME280;53766;50.280;19.160;2023-08-07T05:03:01;97290.50;;;20.12;62.86
66857;BME280;53766;50.280;19.160;2023-08-07T05:05:29;97282.25;;;20.13;62.97
66857;BME280;53766;50.280;19.160;2023-08-07T05:07:58;97282.25;;;20.13;62.94
66857;BME280;53766;50.280;19.160;2023-08-07T05:10:25;97289.22;;;20.14;62.87
66857;BME280;53766;50.280;19.160;2023-08-07T05:12:53;97287.59;;;20.13;62.89
66857;BME280;53766;50.280;19.160;2023-08-07T05:15:23;97293.72;;;20.14;62.84
66857;BME280;53766;50.280;19.160;2023-08-07T05:17:52;97290.25;;;20.13;62.94
66857;BME280;53766;50.280;19.160;2023-08-07T05:20:20;97294.56;;;20.14;62.94
66857;BME280;53766;50.280;19.160;2023-08-07T05:22:47;97305.25;;;20.14;62.86
66857;BME280;53766;50.280;19.160;2023-08-07T05:25:16;97299.09;;;20.14;62.87
66857;BME280;53766;50.280;19.160;2023-08-07T05:27:44;97302.59;;;20.14;62.81
66857;BME280;53766;50.280;19.160;2023-08-07T05:30:12;97312.44;;;20.14;63.06
66857;BME280;53766;50.280;19.160;2023-08-07T05:32:40;97314.31;;;20.13;63.02
66857;BME280;53766;50.280;19.160;2023-08-07T05:35:08;97315.94;;;20.14;63.12
66857;BME280;53766;50.280;19.160;2023-08-07T05:37:36;97315.94;;;20.14;62.96
66857;BME280;53766;50.280;19.160;2023-08-07T05:40:04;97310.59;;;20.14;62.97
66857;BME280;53766;50.280;19.160;2023-08-07T05:42:32;97315.94;;;20.14;62.93
66857;BME280;53766;50.280;19.160;2023-08-07T05:44:59;97317.78;;;20.14;62.97
66857;BME280;53766;50.280;19.160;2023-08-07T05:47:27;97315.94;;;20.14;62.88
66857;BME280;53766;50.280;19.160;2023-08-07T05:49:55;97326.66;;;20.14;63.01
66857;BME280;53766;50.280;19.160;2023-08-07T05:52:22;97330.13;;;20.15;62.83
66857;BME280;53766;50.280;19.160;2023-08-07T05:54:50;97319.66;;;20.13;62.88
66857;BME280;53766;50.280;19.160;2023-08-07T05:57:17;97326.66;;;20.14;62.96
66857;BME280;53766;50.280;19.160;2023-08-07T05:59:45;97323.97;;;20.14;62.89
66857;BME280;53766;50.280;19.160;2023-08-07T06:02:13;97327.69;;;20.13;62.94
66857;BME280;53766;50.280;19.160;2023-08-07T06:04:40;97331.16;;;20.14;63.10
66857;BME280;53766;50.280;19.160;2023-08-07T06:07:08;97331.16;;;20.14;62.93
66857;BME280;53766;50.280;19.160;2023-08-07T06:09:35;97332.00;;;20.14;62.93
66857;BME280;53766;50.280;19.160;2023-08-07T06:12:03;97338.38;;;20.13;63.07
66857;BME280;53766;50.280;19.160;2023-08-07T06:14:31;97334.09;;;20.12;62.77
66857;BME280;53766;50.280;19.160;2023-08-07T06:16:58;97339.44;;;20.12;63.04
66857;BME280;53766;50.280;19.160;2023-08-07T06:19:28;97340.25;;;20.13;63.00
66857;BME280;53766;50.280;19.160;2023-08-07T06:21:59;97341.28;;;20.12;63.05
66857;BME280;53766;50.280;19.160;2023-08-07T06:24:28;97342.13;;;20.12;62.91
66857;BME280;53766;50.280;19.160;2023-08-07T06:26:56;97352.81;;;20.12;63.03
66857;BME280;53766;50.280;19.160;2023-08-07T06:29:23;97346.41;;;20.13;62.73
66857;BME280;53766;50.280;19.160;2023-08-07T06:31:51;97347.47;;;20.12;62.88
66857;BME280;53766;50.280;19.160;2023-08-07T06:34:18;97344.78;;;20.12;62.84
66857;BME280;53766;50.280;19.160;2023-08-07T06:36:46;97350.13;;;20.12;62.85
66857;BME280;53766;50.280;19.160;2023-08-07T06:39:13;97345.81;;;20.11;62.75
66857;BME280;53766;50.280;19.160;2023-08-07T06:41:41;97350.13;;;20.12;62.93
66857;BME280;53766;50.280;19.160;2023-08-07T06:44:08;97344.78;;;20.12;62.69
66857;BME280;53766;50.280;19.160;2023-08-07T06:46:36;97349.28;;;20.12;62.80
66857;BME280;53766;50.280;19.160;2023-08-07T06:49:04;97345.81;;;20.11;62.63
66857;BME280;53766;50.280;19.160;2023-08-07T06:51:32;97355.47;;;20.12;62.78
66857;BME280;53766;50.280;19.160;2023-08-07T06:53:59;97358.16;;;20.12;62.62
66857;BME280;53766;50.280;19.160;2023-08-07T06:56:27;97348.25;;;20.13;62.63
66857;BME280;53766;50.280;19.160;2023-08-07T06:58:54;97348.50;;;20.11;62.60
66857;BME280;53766;50.280;19.160;2023-08-07T07:01:22;97350.13;;;20.12;62.65
66857;BME280;53766;50.280;19.160;2023-08-07T07:03:49;97350.13;;;20.12;62.66
66857;BME280;53766;50.280;19.160;2023-08-07T07:06:20;97352.81;;;20.12;62.51
66857;BME280;53766;50.280;19.160;2023-08-07T07:08:48;97354.66;;;20.12;62.61
66857;BME280;53766;50.280;19.160;2023-08-07T07:11:16;97355.47;;;20.12;62.48
66857;BME280;53766;50.280;19.160;2023-08-07T07:13:44;97360.81;;;20.12;62.50
66857;BME280;53766;50.280;19.160;2023-08-07T07:16:12;97366.16;;;20.12;62.42
66857;BME280;53766;50.280;19.160;2023-08-07T07:18:40;97366.16;;;20.12;62.52
66857;BME280;53766;50.280;19.160;2023-08-07T07:21:08;97366.16;;;20.12;62.51
66857;BME280;53766;50.280;19.160;2023-08-07T07:23:35;97359.19;;;20.11;62.56
66857;BME280;53766;50.280;19.160;2023-08-07T07:26:02;97368.84;;;20.12;62.49
66857;BME280;53766;50.280;19.160;2023-08-07T07:28:30;97374.19;;;20.12;62.40
66857;BME280;53766;50.280;19.160;2023-08-07T07:30:58;97376.88;;;20.12;62.48
66857;BME280;53766;50.280;19.160;2023-08-07T07:33:25;97376.88;;;20.12;62.42
66857;BME280;53766;50.280;19.160;2023-08-07T07:35:53;97376.88;;;20.12;62.50
66857;BME280;53766;50.280;19.160;2023-08-07T07:38:20;97380.56;;;20.11;62.45
66857;BME280;53766;50.280;19.160;2023-08-07T07:40:48;97382.22;;;20.12;62.47
66857;BME280;53766;50.280;19.160;2023-08-07T07:43:15;97387.56;;;20.12;62.28
66857;BME280;53766;50.280;19.160;2023-08-07T07:45:43;97390.22;;;20.12;62.27
66857;BME280;53766;50.280;19.160;2023-08-07T07:48:11;97391.03;;;20.13;62.45
66857;BME280;53766;50.280;19.160;2023-08-07T07:50:39;97388.34;;;20.13;62.31
66857;BME280;53766;50.280;19.160;2023-08-07T07:53:06;97389.41;;;20.12;62.48
66857;BME280;53766;50.280;19.160;2023-08-07T07:55:34;97392.91;;;20.12;62.26
66857;BME280;53766;50.280;19.160;2023-08-07T07:58:01;97392.91;;;20.12;62.27
66857;BME280;53766;50.280;19.160;2023-08-07T08:00:29;97403.59;;;20.12;62.40
66857;BME280;53766;50.280;19.160;2023-08-07T08:02:56;97398.25;;;20.12;62.39
66857;BME280;53766;50.280;19.160;2023-08-07T08:05:24;97397.19;;;20.13;62.34
66857;BME280;53766;50.280;19.160;2023-08-07T08:07:52;97398.25;;;20.12;62.35
66857;BME280;53766;50.280;19.160;2023-08-07T08:10:19;97398.25;;;20.12;62.35
66857;BME280;53766;50.280;19.160;2023-08-07T08:12:47;97408.94;;;20.12;62.15
66857;BME280;53766;50.280;19.160;2023-08-07T08:15:14;97402.53;;;20.13;62.12
66857;BME280;53766;50.280;19.160;2023-08-07T08:17:42;97405.19;;;20.13;62.31
66857;BME280;53766;50.280;19.160;2023-08-07T08:20:10;97412.19;;;20.14;62.29
66857;BME280;53766;50.280;19.160;2023-08-07T08:22:37;97406.84;;;20.14;62.16
66857;BME280;53766;50.280;19.160;2023-08-07T08:25:05;97408.44;;;20.16;62.15
66857;BME280;53766;50.280;19.160;2023-08-07T08:27:33;97413.56;;;20.17;62.07
66857;BME280;53766;50.280;19.160;2023-08-07T08:30:02;97420.78;;;20.17;62.21
66857;BME280;53766;50.280;19.160;2023-08-07T08:32:29;97423.44;;;20.17;62.14
66857;BME280;53766;50.280;19.160;2023-08-07T08:34:57;97419.94;;;20.16;62.18
66857;BME280;53766;50.280;19.160;2023-08-07T08:37:25;97425.06;;;20.18;62.16
66857;BME280;53766;50.280;19.160;2023-08-07T08:39:54;97419.72;;;20.18;62.15
66857;BME280;53766;50.280;19.160;2023-08-07T08:42:21;97432.28;;;20.17;62.04
66857;BME280;53766;50.280;19.160;2023-08-07T08:44:56;97426.94;;;20.17;62.18
66857;BME280;53766;50.280;19.160;2023-08-07T08:47:25;97427.72;;;20.18;62.11
66857;BME280;53766;50.280;19.160;2023-08-07T08:50:07;97433.88;;;20.18;62.14
66857;BME280;53766;50.280;19.160;2023-08-07T08:52:43;97433.06;;;20.18;62.05
66857;BME280;53766;50.280;19.160;2023-08-07T08:55:13;97433.06;;;20.18;62.15
66857;BME280;53766;50.280;19.160;2023-08-07T08:57:40;97433.88;;;20.18;62.04
66857;BME280;53766;50.280;19.160;2023-08-07T09:00:09;97440.06;;;20.19;61.99
66857;BME280;53766;50.280;19.160;2023-08-07T09:02:46;97440.06;;;20.19;61.99
66857;BME280;53766;50.280;19.160;2023-08-07T09:05:15;97434.72;;;20.19;61.92
66857;BME280;53766;50.280;19.160;2023-08-07T09:07:44;97436.31;;;20.20;62.00
66857;BME280;53766;50.280;19.160;2023-08-07T09:10:14;97436.31;;;20.20;61.90
66857;BME280;53766;50.280;19.160;2023-08-07T09:12:53;97435.25;;;20.21;61.90
66857;BME280;53766;50.280;19.160;2023-08-07T09:15:25;97438.78;;;20.21;62.00
66857;BME280;53766;50.280;19.160;2023-08-07T09:17:54;97437.94;;;20.21;61.97
66857;BME280;53766;50.280;19.160;2023-08-07T09:20:23;97443.28;;;20.21;61.87
66857;BME280;53766;50.280;19.160;2023-08-07T09:22:52;97444.91;;;20.22;61.91
66857;BME280;53766;50.280;19.160;2023-08-07T09:25:32;97451.06;;;20.22;62.01
66857;BME280;53766;50.280;19.160;2023-08-07T09:28:05;97446.53;;;20.23;61.89
66857;BME280;53766;50.280;19.160;2023-08-07T09:30:35;97448.16;;;20.24;61.88
66857;BME280;53766;50.280;19.160;2023-08-07T09:33:03;97451.41;;;20.26;62.13
66857;BME280;53766;50.280;19.160;2023-08-07T09:35:31;97457.78;;;20.25;61.76
66857;BME280;53766;50.280;19.160;2023-08-07T09:37:59;97454.91;;;20.26;61.73
66857;BME280;53766;50.280;19.160;2023-08-07T09:40:29;97454.91;;;20.26;61.76
66857;BME280;53766;50.280;19.160;2023-08-07T09:43:00;97450.59;;;20.25;61.92
66857;BME280;53766;50.280;19.160;2023-08-07T09:45:28;97450.59;;;20.25;61.78
66857;BME280;53766;50.280;19.160;2023-08-07T09:48:06;97460.72;;;20.23;61.90
66857;BME280;53766;50.280;19.160;2023-08-07T09:50:34;97469.56;;;20.24;61.83
66857;BME280;53766;50.280;19.160;2023-08-07T09:53:01;97461.53;;;20.24;61.69
66857;BME280;53766;50.280;19.160;2023-08-07T09:55:29;97464.22;;;20.24;61.88
66857;BME280;53766;50.280;19.160;2023-08-07T09:58:01;97463.16;;;20.25;61.78
66857;BME280;53766;50.280;19.160;2023-08-07T10:00:33;97472.00;;;20.25;61.78
66857;BME280;53766;50.280;19.160;2023-08-07T10:03:01;97473.59;;;20.26;61.87
66857;BME280;53766;50.280;19.160;2023-08-07T10:05:29;97474.41;;;20.27;61.78
66857;BME280;53766;50.280;19.160;2023-08-07T10:07:58;97476.84;;;20.28;61.74
66857;BME280;53766;50.280;19.160;2023-08-07T10:10:26;97484.06;;;20.28;61.78
66857;BME280;53766;50.280;19.160;2023-08-07T10:12:54;97488.34;;;20.29;61.75
66857;BME280;53766;50.280;19.160;2023-08-07T10:15:22;97493.69;;;20.29;61.83
66857;BME280;53766;50.280;19.160;2023-08-07T10:17:50;97494.78;;;20.28;61.64
66857;BME280;53766;50.280;19.160;2023-08-07T10:20:18;97502.78;;;20.28;61.85
66857;BME280;53766;50.280;19.160;2023-08-07T10:22:45;97495.81;;;20.27;61.86
66857;BME280;53766;50.280;19.160;2023-08-07T10:25:15;97521.72;;;20.26;61.89
66857;BME280;53766;50.280;19.160;2023-08-07T10:27:49;97529.97;;;20.25;61.71
66857;BME280;53766;50.280;19.160;2023-08-07T10:30:19;97523.84;;;20.24;61.80
66857;BME280;53766;50.280;19.160;2023-08-07T10:32:48;97518.47;;;20.24;61.84
66857;BME280;53766;50.280;19.160;2023-08-07T10:35:26;97526.50;;;20.24;62.05
66857;BME280;53766;50.280;19.160;2023-08-07T10:38:09;97532.66;;;20.25;61.91
66857;BME280;53766;50.280;19.160;2023-08-07T10:41:04;97529.97;;;20.25;61.89
66857;BME280;53766;50.280;19.160;2023-08-07T10:43:43;97529.97;;;20.25;61.94
66857;BME280;53766;50.280;19.160;2023-08-07T10:46:14;97533.72;;;20.24;61.88
66857;BME280;53766;50.280;19.160;2023-08-07T10:48:46;97538.00;;;20.25;61.91
66857;BME280;53766;50.280;19.160;2023-08-07T10:51:16;97529.97;;;20.25;61.79
66857;BME280;53766;50.280;19.160;2023-08-07T10:53:48;97540.69;;;20.25;61.88
66857;BME280;53766;50.280;19.160;2023-08-07T10:56:18;97536.16;;;20.25;61.86
66857;BME280;53766;50.280;19.160;2023-08-07T10:58:56;97541.50;;;20.25;61.65
66857;BME280;53766;50.280;19.160;2023-08-07T11:04:14;97551.38;;;20.25;61.74
66857;BME280;53766;50.280;19.160;2023-08-07T11:06:44;97551.38;;;20.25;61.74
66857;BME280;53766;50.280;19.160;2023-08-07T11:09:13;97556.72;;;20.25;61.87
66857;BME280;53766;50.280;19.160;2023-08-07T11:11:50;97557.56;;;20.25;61.87
66857;BME280;53766;50.280;19.160;2023-08-07T11:14:19;97553.00;;;20.26;61.85
66857;BME280;53766;50.280;19.160;2023-08-07T11:16:48;97545.00;;;20.26;61.66
66857;BME280;53766;50.280;19.160;2023-08-07T11:19:16;97545.00;;;20.26;61.78
66857;BME280;53766;50.280;19.160;2023-08-07T11:21:44;97542.31;;;20.26;61.67
66857;BME280;53766;50.280;19.160;2023-08-07T11:24:13;97547.66;;;20.26;61.71
66857;BME280;53766;50.280;19.160;2023-08-07T11:26:43;97545.00;;;20.26;61.71
66857;BME280;53766;50.280;19.160;2023-08-07T11:29:10;97547.66;;;20.26;61.64
66857;BME280;53766;50.280;19.160;2023-08-07T11:31:42;97546.88;;;20.25;61.71
66857;BME280;53766;50.280;19.160;2023-08-07T11:34:10;97558.38;;;20.26;61.81
66857;BME280;53766;50.280;19.160;2023-08-07T11:36:42;97561.03;;;20.26;61.73
66857;BME280;53766;50.280;19.160;2023-08-07T11:39:11;97558.38;;;20.26;61.73
66857;BME280;53766;50.280;19.160;2023-08-07T11:41:39;97558.38;;;20.26;61.58
66857;BME280;53766;50.280;19.160;2023-08-07T11:44:07;97559.41;;;20.25;61.75
66857;BME280;53766;50.280;19.160;2023-08-07T11:46:36;97560.22;;;20.25;61.65
66857;BME280;53766;50.280;19.160;2023-08-07T11:49:03;97564.75;;;20.25;61.64
66857;BME280;53766;50.280;19.160;2023-08-07T11:51:32;97562.06;;;20.25;61.69
66857;BME280;53766;50.280;19.160;2023-08-07T11:54:00;97563.72;;;20.26;61.67
66857;BME280;53766;50.280;19.160;2023-08-07T11:56:29;97577.06;;;20.26;61.77
66857;BME280;53766;50.280;19.160;2023-08-07T11:58:57;97574.41;;;20.26;61.80
66857;BME280;53766;50.280;19.160;2023-08-07T12:01:26;97577.88;;;20.26;61.83
66857;BME280;53766;50.280;19.160;2023-08-07T12:04:09;97577.06;;;20.26;61.55
66857;BME280;53766;50.280;19.160;2023-08-07T12:06:37;97579.75;;;20.26;61.66
66857;BME280;53766;50.280;19.160;2023-08-07T12:09:07;97584.28;;;20.25;61.53
66857;BME280;53766;50.280;19.160;2023-08-07T12:11:40;97589.66;;;20.25;61.74
66857;BME280;53766;50.280;19.160;2023-08-07T12:14:08;97588.56;;;20.26;61.58
66857;BME280;53766;50.280;19.160;2023-08-07T12:16:35;97595.78;;;20.26;61.77
66857;BME280;53766;50.280;19.160;2023-08-07T12:19:03;97595.78;;;20.26;61.53
66857;BME280;53766;50.280;19.160;2023-08-07T12:21:32;97598.47;;;20.26;61.62
66857;BME280;53766;50.280;19.160;2023-08-07T12:24:00;97603.00;;;20.25;61.65
66857;BME280;53766;50.280;19.160;2023-08-07T12:26:28;97611.84;;;20.26;61.67
66857;BME280;53766;50.280;19.160;2023-08-07T12:28:56;97612.66;;;20.26;61.50
66857;BME280;53766;50.280;19.160;2023-08-07T12:31:23;97615.31;;;20.26;61.66
66857;BME280;53766;50.280;19.160;2023-08-07T12:33:51;97617.19;;;20.26;61.56
66857;BME280;53766;50.280;19.160;2023-08-07T12:36:20;97622.53;;;20.26;61.65
66857;BME280;53766;50.280;19.160;2023-08-07T12:38:47;97624.16;;;20.27;61.46
66857;BME280;53766;50.280;19.160;2023-08-07T12:41:15;97623.34;;;20.26;61.62
66857;BME280;53766;50.280;19.160;2023-08-07T12:43:45;97622.31;;;20.27;61.55
66857;BME280;53766;50.280;19.160;2023-08-07T12:46:14;97630.31;;;20.27;61.58
66857;BME280;53766;50.280;19.160;2023-08-07T12:48:44;97628.47;;;20.28;61.39
66857;BME280;53766;50.280;19.160;2023-08-07T12:51:12;97631.13;;;20.28;61.43
66857;BME280;53766;50.280;19.160;2023-08-07T12:53:40;97632.75;;;20.29;61.47
66857;BME280;53766;50.280;19.160;2023-08-07T12:56:07;97637.06;;;20.30;61.32
66857;BME280;53766;50.280;19.160;2023-08-07T12:58:35;97634.38;;;20.30;61.54
66857;BME280;53766;50.280;19.160;2023-08-07T13:01:04;97643.22;;;20.30;61.39
66857;BME280;53766;50.280;19.160;2023-08-07T13:03:31;97636.81;;;20.31;61.34
66857;BME280;53766;50.280;19.160;2023-08-07T13:05:59;97631.47;;;20.31;61.39